Latest Weather Observations for Gatton

IDQ60801

Issued at 10:32 pm EST Monday 2 March 2015 (issued every 30 minutes, with the page automatically refreshed every 10 minutes)

About weather observations | Map of weather stations | Latest weather observations for QLD | Other Formats
Station Details ID: 040082 Name: UNIVERSITY OF QUEENSLAND GATTON Lat: -27.54 Lon: 152.34 Height: 89.0 m
Data from the previous 72 hours. | See also: Recent months at Gatton
Date/Time
EST
Temp
°C
App
Temp
°C
Dew
Point
Rel
Hum
%
Delta-T
°C
Wind Press
QNH
hPa
Press
MSL
hPa
Rain
since 9 am
mm
Dir
 
Spd
km/h
Gust
km/h
Spd
kts
Gust
kts
02/10:30pm 22.5 23.9 18.7 79 2.4 SE 9 13 5 7 - - 0.0
02/10:00pm 23.1 23.4 18.8 77 2.7 SE 15 20 8 11 - - 0.0
02/09:30pm 23.6 24.0 18.9 75 3.0 SE 15 22 8 12 - - 0.0
02/09:00pm 24.3 24.4 19.1 73 3.3 SE 17 26 9 14 - - 0.0
02/08:30pm 24.8 24.5 19.2 71 3.6 SE 19 26 10 14 - - 0.0
02/08:00pm 25.0 24.8 19.4 71 3.6 SE 19 28 10 15 - - 0.0
02/07:30pm 25.3 24.9 19.4 70 3.8 SE 20 28 11 15 - - 0.0
02/07:00pm 25.3 24.9 19.0 68 4.0 SSE 19 26 10 14 - - 0.0
02/06:30pm 26.2 24.6 18.3 61 5.0 SSE 24 35 13 19 - - 0.0
02/06:00pm 27.9 26.4 18.6 57 6.0 SE 24 33 13 18 - - 0.0
02/05:30pm 28.5 28.0 18.6 55 6.4 SE 19 24 10 13 - - 0.0
02/05:00pm 29.3 28.1 18.4 51 7.0 ESE 22 30 12 16 - - 0.0
02/04:30pm 29.7 28.4 18.2 50 7.4 SE 22 33 12 18 - - 0.0
02/04:00pm 30.2 28.8 18.9 50 7.3 SE 24 33 13 18 - - 0.0
02/03:30pm 30.6 29.7 19.0 50 7.6 SE 22 30 12 16 - - 0.0
02/03:00pm 30.6 29.3 19.0 50 7.6 SE 24 37 13 20 - - 0.0
02/02:30pm 30.6 30.1 19.9 52 7.1 ESE 22 33 12 18 - - 0.0
02/02:00pm 30.9 30.9 20.2 53 7.1 ESE 20 30 11 16 - - 0.0
02/01:30pm 30.4 30.1 20.3 54 6.7 SSE 22 30 12 16 - - 0.0
02/01:00pm 30.1 30.3 20.1 55 6.6 SSE 19 30 10 16 - - 0.0
02/12:30pm 30.0 30.2 20.5 56 6.3 SSE 20 32 11 17 - - 0.0
02/12:00pm 29.4 28.9 20.0 57 6.2 SE 22 33 12 18 - - 0.0
02/11:30am 28.8 28.2 19.7 58 6.0 SE 22 32 12 17 - - 0.0
02/11:00am 27.9 28.0 19.9 61 5.2 S 19 30 10 16 - - 0.0
02/10:30am 27.5 27.2 19.6 62 5.1 SE 20 32 11 17 - - 0.0
02/10:00am 28.4 28.3 19.6 59 5.7 SE 19 28 10 15 - - 0.0
02/09:30am 28.4 30.7 21.4 66 4.7 E 11 15 6 8 - - 0.0
02/09:00am 27.5 29.6 20.1 64 4.9 SE 9 13 5 7 - - 0.0
02/08:30am 26.8 28.8 19.9 66 4.5 SSE 9 15 5 8 - - 0.0
02/08:00am 26.1 28.0 19.7 68 4.2 SSE 9 15 5 8 - - 0.0
02/07:30am 25.7 28.3 20.5 73 3.4 SE 7 9 4 5 - - 0.0
02/07:00am 24.6 27.5 21.1 81 2.3 SSE 7 9 4 5 - - 0.0
02/06:30am 23.9 27.2 20.8 83 2.0 S 4 9 2 5 - - 0.0
02/06:00am 23.1 27.2 20.8 87 1.5 CALM 0 0 0 0 - - 0.0
02/05:30am 23.1 27.3 21.0 88 1.4 CALM 0 0 0 0 - - 0.0
02/05:00am 23.0 25.7 20.7 87 1.5 SSW 7 9 4 5 - - 0.0
02/04:30am 23.0 26.0 20.9 88 1.4 SW 6 7 3 4 - - 0.0
02/04:00am 23.0 25.7 20.7 87 1.5 S 7 9 4 5 - - 0.0
02/03:30am 22.8 26.1 20.7 88 1.4 SSW 4 7 2 4 - - 0.0
02/03:00am 22.6 26.8 20.9 90 1.1 CALM 0 0 0 0 - - 0.0
02/02:30am 22.1 25.9 20.2 89 1.2 CALM 0 6 0 3 - - 0.0
02/02:00am 21.9 24.5 20.0 89 1.2 W 6 6 3 3 - - 0.0
02/01:30am 22.2 26.0 20.1 88 1.4 CALM 0 0 0 0 - - 0.0
02/01:00am 22.6 25.5 19.9 85 1.7 SSE 4 7 2 4 - - 0.0
02/12:30am 22.9 25.6 20.2 85 1.7 S 6 7 3 4 - - 0.0
02/12:00am 22.9 26.7 20.1 84 1.8 CALM 0 0 0 0 - - 0.0
 
Date/Time
EST
Temp
°C
App
Temp
°C
Dew
Point
Rel
Hum
%
Delta-T
°C
Wind Press
QNH
hPa
Press
MSL
hPa
Rain
since 9 am
mm
Dir
 
Spd
km/h
Gust
km/h
Spd
kts
Gust
kts
01/11:30pm 23.3 26.4 20.2 83 2.0 SSE 4 7 2 4 - - 0.0
01/11:00pm 23.5 25.7 20.4 83 2.0 SSE 9 11 5 6 - - 0.0
01/10:30pm 23.8 26.3 20.3 81 2.3 SE 7 9 4 5 - - 0.0
01/10:00pm 24.1 26.7 20.4 80 2.4 SE 7 11 4 6 - - 0.0
01/09:30pm 25.0 26.7 20.9 78 2.7 SSE 13 17 7 9 - - 0.0
01/09:00pm 25.2 28.3 21.5 80 2.5 SE 7 9 4 5 - - 0.0
01/08:30pm 25.5 27.3 21.2 77 2.8 E 13 17 7 9 - - 0.0
01/08:00pm 26.2 27.7 21.2 74 3.3 ENE 15 19 8 10 - - 0.0
01/07:30pm 26.8 28.7 21.3 72 3.7 ENE 13 15 7 8 - - 0.0
01/07:00pm 27.5 29.7 19.6 62 5.1 E 7 9 4 5 - - 0.0
01/06:30pm 29.0 30.7 19.3 55 6.3 NE 9 13 5 7 - - 0.0
01/06:00pm 29.7 31.0 19.4 54 6.7 NNE 11 15 6 8 - - 0.0
01/05:30pm 31.1 32.6 19.8 51 7.5 NNE 11 17 6 9 - - 0.0
01/05:00pm 31.4 33.1 19.4 49 7.9 NE 9 15 5 8 - - 0.0
01/04:30pm 31.5 33.1 19.2 48 8.1 NNE 9 13 5 7 - - 0.0
01/04:00pm 31.7 33.2 19.7 49 7.9 NE 11 20 6 11 - - 0.0
01/03:30pm 31.9 34.4 20.2 50 7.8 N 7 15 4 8 - - 0.0
01/03:00pm 31.5 33.7 19.2 48 8.1 E 6 13 3 7 - - 0.0
01/02:30pm 31.1 32.6 18.8 48 8.0 ESE 9 13 5 7 - - 0.0
01/02:00pm 31.2 33.2 19.2 48 7.9 ENE 7 13 4 7 - - 0.0
01/01:30pm 30.7 32.2 18.8 49 7.7 NE 9 13 5 7 - - 0.0
01/01:00pm 30.3 31.8 19.0 50 7.4 NNE 9 15 5 8 - - 0.0
01/12:30pm 29.7 30.8 18.8 52 7.1 NNE 11 17 6 9 - - 0.0
01/12:00pm 29.5 31.4 19.8 56 6.4 NW 9 15 5 8 - - 0.0
01/11:30am 29.4 32.0 20.0 57 6.2 N 6 11 3 6 - - 0.0
01/11:00am 28.4 30.5 20.1 60 5.5 NNE 9 17 5 9 - - 0.0
01/10:30am 28.0 29.8 19.5 60 5.5 E 9 15 5 8 - - 0.0
01/10:00am 27.7 29.9 19.5 61 5.3 ENE 7 13 4 7 - - 0.0
01/09:30am 26.6 28.8 19.2 64 4.8 N 6 13 3 7 - - 0.0
01/09:00am 26.2 28.5 20.7 71 3.6 N 9 11 5 6 - - 0.0
01/08:30am 25.3 28.5 19.7 71 3.6 NNE 2 7 1 4 - - 0.0
01/08:00am 25.2 27.7 20.2 74 3.3 E 7 11 4 6 - - 0.0
01/07:30am 24.2 26.6 20.1 78 2.7 ESE 7 9 4 5 - - 0.0
01/07:00am 23.3 27.1 20.2 83 2.0 CALM 0 0 0 0 - - 0.0
01/06:30am 21.7 25.6 20.3 92 0.9 CALM 0 0 0 0 - - 0.0
01/06:00am 20.8 24.3 19.5 92 0.8 CALM 0 0 0 0 - - 0.0
01/05:30am 21.3 24.9 19.8 91 1.0 CALM 0 0 0 0 - - 0.0
01/05:00am 21.7 25.5 20.2 91 1.0 CALM 0 0 0 0 - - 0.0
01/04:30am 21.9 25.9 20.5 92 0.9 CALM 0 0 0 0 - - 0.0
01/04:00am 21.6 24.2 20.1 91 1.0 SE 6 6 3 3 - - 0.0
01/03:30am 21.3 23.7 19.6 90 1.1 S 6 9 3 5 - - 0.0
01/03:00am 21.2 23.4 19.7 91 1.0 S 7 9 4 5 - - 0.0
01/02:30am 21.2 24.7 19.5 90 1.1 CALM 0 0 0 0 - - 0.0
01/02:00am 21.9 25.6 20.0 89 1.2 CALM 0 0 0 0 - - 0.0
01/01:30am 22.7 26.5 20.2 86 1.6 CALM 0 0 0 0 - - 0.0
01/01:00am 23.0 25.8 20.9 88 1.4 SE 7 7 4 4 - - 0.0
01/12:30am 23.0 27.3 21.1 89 1.2 CALM 0 0 0 0 - - 0.0
01/12:00am 22.7 26.8 20.8 89 1.2 CALM 0 0 0 0 - - 0.0
 
Date/Time
EST
Temp
°C
App
Temp
°C
Dew
Point
Rel
Hum
%
Delta-T
°C
Wind Press
QNH
hPa
Press
MSL
hPa
Rain
since 9 am
mm
Dir
 
Spd
km/h
Gust
km/h
Spd
kts
Gust
kts
28/11:30pm 22.3 25.0 20.2 88 1.4 E 6 9 3 5 - - 0.0
28/11:00pm 22.5 25.8 20.0 86 1.6 E 2 6 1 3 - - 0.0
28/10:30pm 23.0 25.5 20.3 85 1.8 ENE 7 11 4 6 - - 0.0
28/10:00pm 23.3 25.4 20.2 83 2.0 E 9 11 5 6 - - 0.0
28/09:30pm 23.7 25.9 20.4 82 2.1 E 9 11 5 6 - - 0.0
28/09:00pm 24.2 27.2 20.9 82 2.2 SE 6 9 3 5 - - 0.0
28/08:30pm 24.2 26.4 20.5 80 2.4 ESE 9 13 5 7 - - 0.0
28/08:00pm 24.8 25.9 20.5 77 2.8 E 15 20 8 11 - - 0.0
28/07:30pm 25.3 26.0 20.5 75 3.1 E 17 22 9 12 - - 0.0
28/07:00pm 25.6 26.0 20.6 74 3.3 E 19 24 10 13 - - 0.0
28/06:30pm 25.9 26.7 20.7 73 3.4 E 17 22 9 12 - - 0.0
28/06:00pm 26.7 26.9 20.5 69 4.1 E 20 28 11 15 - - 0.0
28/05:30pm 27.8 28.0 20.6 65 4.8 ENE 20 28 11 15 - - 0.0
28/05:00pm 28.4 27.8 20.4 62 5.3 ENE 24 33 13 18 - - 0.0
28/04:30pm 29.3 29.2 20.7 59 5.7 E 22 35 12 19 - - 0.0
28/04:00pm 30.9 31.5 21.1 56 6.6 E 19 26 10 14 - - 0.0
28/03:30pm 30.1 31.6 19.8 54 6.8 ENE 11 15 6 8 - - 0.0
28/03:00pm 31.0 32.3 19.4 50 7.6 E 11 20 6 11 - - 0.0
28/02:30pm 31.3 33.2 20.6 53 7.1 ENE 11 20 6 11 - - 0.0
28/02:00pm 30.5 31.8 19.2 51 7.4 E 11 17 6 9 - - 0.0
28/01:30pm 30.4 32.0 20.0 53 6.9 N 11 20 6 11 - - 0.0
28/01:00pm 30.0 31.5 20.5 56 6.3 NNE 13 19 7 10 - - 0.0
28/12:30pm 29.4 30.8 20.3 58 6.0 NNE 13 20 7 11 - - 0.0
28/12:00pm 28.6 30.8 19.5 58 5.9 E 7 11 4 6 - - 0.0
28/11:30am 28.4 29.7 19.3 57 5.9 NNE 11 15 6 8 - - 0.0
28/11:00am 27.7 29.3 19.2 60 5.5 ENE 9 15 5 8 - - 0.0
28/10:30am 27.6 30.6 20.9 67 4.4 E 6 11 3 6 - - 0.0
28/10:00am 26.6 29.0 20.0 67 4.3 ENE 7 13 4 7 - - 0.0
28/09:30am 26.4 29.4 20.9 72 3.6 SSE 6 9 3 5 - - 0.0
28/09:00am 24.6 28.4 20.1 76 2.9 CALM 0 4 0 2 - - 0.0
28/08:30am 24.6 27.2 20.1 76 2.9 ENE 6 11 3 6 - - 0.0
28/08:00am 24.6 27.8 20.5 78 2.7 ENE 4 7 2 4 - - 0.0
28/07:30am 22.7 26.8 20.8 89 1.2 CALM 0 0 0 0 - - 0.0
28/07:00am 21.5 25.4 20.3 93 0.8 CALM 0 0 0 0 - - 0.0
28/06:30am 21.2 25.0 20.2 94 0.6 CALM 0 0 0 0 - - 0.0
28/06:00am 20.3 23.6 19.1 93 0.8 CALM 0 0 0 0 - - 0.0
28/05:30am 20.7 24.3 19.7 94 0.6 CALM 0 0 0 0 - - 0.0
28/05:00am 20.4 23.8 19.4 94 0.6 CALM 0 0 0 0 - - 0.0
28/04:30am 20.2 23.4 18.9 92 0.8 CALM 0 0 0 0 - - 0.0
28/04:00am 20.4 23.6 18.9 91 0.9 CALM 0 0 0 0 - - 0.0
28/03:30am 20.7 24.0 19.0 90 1.1 CALM 0 0 0 0 - - 0.0
28/03:00am 21.2 23.8 19.3 89 1.2 SE 4 7 2 4 - - 0.0
28/02:30am 21.7 24.0 19.8 89 1.2 SSE 7 9 4 5 - - 0.0
28/02:00am 21.9 24.2 19.8 88 1.3 SSE 7 9 4 5 - - 0.0
28/01:30am 22.2 26.1 20.3 89 1.2 CALM 0 0 0 0 - - 0.0
28/01:00am 22.5 26.4 20.4 88 1.4 CALM 0 0 0 0 - - 0.0
28/12:30am 22.4 26.3 20.3 88 1.4 CALM 0 0 0 0 - - 0.0
28/12:00am 22.5 26.4 20.4 88 1.4 CALM 0 6 0 3 - - 0.0
 
Date/Time
EST
Temp
°C
App
Temp
°C
Dew
Point
Rel
Hum
%
Delta-T
°C
Wind Press
QNH
hPa
Press
MSL
hPa
Rain
since 9 am
mm
Dir
 
Spd
km/h
Gust
km/h
Spd
kts
Gust
kts
27/11:30pm 22.3 24.7 20.0 87 1.5 ENE 7 9 4 5 - - 0.0
27/11:00pm 22.7 26.5 20.2 86 1.6 CALM 0 0 0 0 - - 0.0

Other Formats:

Comma delimited format used in spreadsheet applications
http://www.bom.gov.au/fwo/IDQ60801/IDQ60801.94562.axf

JavaScript Object Notation format (JSON) in row-major order
http://www.bom.gov.au/fwo/IDQ60801/IDQ60801.94562.json